Time;durP1;ratioP1;P1;durP2;ratioP2;P2;SDS_P1;SDS_P2;PMS_P1;PMS_P2;Temp;Humidity;BMP_temperature;BMP_pressure;BME280_temperature;BME280_humidity;BME280_pressure;Samples;Min_cycle;Max_cycle;Signal;HPM_P1;HPM_P2
2023/01/19 00:00:36;;;;;;;2.30;1.50;;;;;;;;;;5045672;28;20036;-85
2023/01/19 00:03:03;;;;;;;5.93;1.20;;;3.60;99.90;;;;;;5048341;28;20063;-86
2023/01/19 00:05:29;;;;;;;4.88;1.35;;;;;;;;;;5048174;28;20138;-85
2023/01/19 00:07:55;;;;;;;2.97;1.10;;;;;;;;;;5048472;28;20497;-86
2023/01/19 00:10:21;;;;;;;1.60;1.30;;;;;;;;;;5048365;28;20040;-85
2023/01/19 00:12:47;;;;;;;2.63;1.10;;;;;;;;;;5048028;28;20036;-86
2023/01/19 00:15:13;;;;;;;1.77;0.95;;;;;;;;;;5048152;28;20095;-85
2023/01/19 00:17:39;;;;;;;1.35;1.02;;;;;;;;;;5048164;28;20101;-85
2023/01/19 00:20:06;;;;;;;5.40;1.10;;;;;;;;;;5041961;28;20115;-85
2023/01/19 00:22:32;;;;;;;4.03;0.80;;;;;;;;;;5025244;28;20041;-85
2023/01/19 00:24:58;;;;;;;6.97;2.58;;;;;;;;;;5035716;28;20117;-85
2023/01/19 00:27:24;;;;;;;3.35;1.10;;;;;;;;;;5047857;28;20060;-85
2023/01/19 00:29:50;;;;;;;3.70;1.15;;;;;;;;;;5033744;28;20037;-85
2023/01/19 00:32:16;;;;;;;3.00;1.05;;;;;;;;;;5047735;28;20041;-86
2023/01/19 00:34:48;;;;;;;6.55;1.17;;;;;;;;;;5047628;28;20509;-85
2023/01/19 00:37:14;;;;;;;4.25;1.20;;;;;;;;;;5047749;28;20106;-86
2023/01/19 00:39:40;;;;;;;6.32;1.10;;;;;;;;;;5033620;28;20045;-85
2023/01/19 00:44:50;;;;;;;3.95;1.60;;;;;;;;;;5044895;28;20072;-85
2023/01/19 00:47:16;;;;;;;4.22;1.67;;;;;;;;;;5047772;28;20049;-85
2023/01/19 00:49:42;;;;;;;2.95;1.25;;;;;;;;;;5033512;28;20120;-85
2023/01/19 00:52:08;;;;;;;1.92;1.83;;;;;;;;;;5047904;28;20723;-86
2023/01/19 00:54:34;;;;;;;4.18;2.75;;;;;;;;;;5043791;28;20087;-86
2023/01/19 00:57:00;;;;;;;5.28;2.40;;;;;;;;;;5033974;28;20049;-85
2023/01/19 00:59:26;;;;;;;3.38;2.83;;;;;;;;;;5040235;28;20631;-85
2023/01/19 01:01:52;;;;;;;3.42;2.50;;;;;;;;;;5027869;28;20080;-85
2023/01/19 01:04:18;;;;;;;4.00;2.30;;;;;;;;;;5024832;28;20434;-85
2023/01/19 01:06:44;;;;;;;10.05;3.13;;;;;;;;;;5027467;28;20072;-85
2023/01/19 01:09:13;;;;;;;3.50;2.53;;;;;;;;;;5045037;28;20036;-85
2023/01/19 01:11:40;;;;;;;4.80;2.63;;;;;;;;;;5047378;28;20048;-85
2023/01/19 01:14:06;;;;;;;5.38;3.38;;;;;;;;;;5033142;28;20652;-85
2023/01/19 01:16:32;;;;;;;4.75;3.05;;;;;;;;;;5039488;28;20486;-85
2023/01/19 01:18:58;;;;;;;6.65;3.38;;;;;;;;;;5041707;28;20051;-85
2023/01/19 01:21:24;;;;;;;6.78;3.25;;;;;;;;;;5030259;28;20053;-85
2023/01/19 01:23:50;;;;;;;7.22;3.78;;;;;;;;;;5039796;28;20052;-85
2023/01/19 01:26:16;;;;;;;4.10;3.20;;;;;;;;;;5047316;28;20044;-85
2023/01/19 01:28:42;;;;;;;5.03;3.70;;;;;;;;;;5047378;28;20047;-85
2023/01/19 01:31:09;;;;;;;5.50;3.22;;;;;;;;;;5047357;28;20406;-85
2023/01/19 01:33:34;;;;;;;6.63;3.50;;;;;;;;;;5030758;28;20040;-85
2023/01/19 01:36:00;;;;;;;5.85;3.80;;;;;;;;;;5047371;28;20570;-85
2023/01/19 01:38:26;;;;;;;5.00;3.65;;;;;;;;;;5050851;28;20097;-85
2023/01/19 01:40:52;;;;;;;6.43;3.40;;;;;;;;;;5051901;28;20053;-85
2023/01/19 01:43:22;;;;;;;5.13;3.58;;;;;;;;;;5051447;28;20499;-86
2023/01/19 01:45:48;;;;;;;6.35;3.55;;;;;;;;;;5035070;28;20048;-85
2023/01/19 01:48:24;;;;;;;5.10;3.90;;;;;;;;;;5051356;28;20051;-85
2023/01/19 01:53:41;;;;;;;6.10;3.95;;;;;;;;;;5033394;28;20048;-85
2023/01/19 01:56:11;;;;;;;7.82;4.25;;;;;;;;;;5051486;28;20483;-85
2023/01/19 01:58:38;;;;;;;5.90;3.47;;;;;;;;;;5050524;28;20060;-85
2023/01/19 02:03:50;;;;;;;7.25;4.40;;;;;;;;;;5050676;28;20804;-85
2023/01/19 02:06:16;;;;;;;5.40;4.30;;;;;;;;;;5051010;28;20457;-85
2023/01/19 02:14:15;;;;;;;6.97;3.70;;;;;;;;;;5048191;28;20043;-85
2023/01/19 02:16:41;;;;;;;5.28;3.88;;;;;;;;;;5050740;28;20048;-85
2023/01/19 02:19:09;;;;;;;7.57;4.13;;;;;;;;;;5034368;28;20761;-85
2023/01/19 02:21:43;;;;;;;7.43;3.95;;;;;;;;;;5042860;28;20410;-85
2023/01/19 02:24:09;;;;;;;5.72;3.88;;;;;;;;;;5029189;28;20099;-85
2023/01/19 02:26:40;;;;;;;7.35;3.95;;;;;;;;;;5049955;28;20037;-85
2023/01/19 02:29:06;;;;;;;6.43;4.13;;;;;;;;;;5036563;28;20075;-85
2023/01/19 02:31:33;;;;;;;7.53;4.43;;;;;;;;;;5049683;28;20474;-86
2023/01/19 02:33:59;;;;;;;13.48;4.07;;;;;;;;;;5050071;28;20048;-85
2023/01/19 02:36:28;;;;;;;8.23;4.63;;;;;;;;;;5033175;28;20087;-85
2023/01/19 02:38:55;;;;;;;9.38;4.65;;;;;;;;;;5039819;28;20067;-85
2023/01/19 02:41:24;;;;;;;12.07;4.78;;;;;;;;;;5044029;28;20741;-85
2023/01/19 02:43:50;;;;;;;5.75;4.05;;;;;;;;;;5013190;28;20148;-85
2023/01/19 02:46:16;;;;;;;8.30;4.47;;;;;;;;;;5044773;28;20036;-85
2023/01/19 02:48:42;;;;;;;9.73;4.25;;;;;;;;;;5041243;28;20491;-85
2023/01/19 02:51:11;;;;;;;6.45;3.85;;;;;;;;;;5029861;28;20398;-85
2023/01/19 02:53:37;;;;;;;7.20;3.40;;;;;;;;;;5049166;28;20123;-85
2023/01/19 02:56:06;;;;;;;4.47;3.17;;;;;;;;;;5033045;28;20135;-85
2023/01/19 02:58:41;;;;;;;3.70;2.60;;;;;;;;;;5035607;28;20206;-85
2023/01/19 03:01:11;;;;;;;8.85;2.58;;;;;;;;;;5049401;28;20487;-86
2023/01/19 03:03:45;;;;;;;3.35;2.58;;;;;;;;;;5035956;28;20060;-86
2023/01/19 03:06:25;;;;;;;4.07;2.15;;;;;;;;;;5036416;28;20057;-85
2023/01/19 03:09:17;;;;;;;6.22;1.98;;;;;;;;;;5035393;28;20051;-85
2023/01/19 03:11:46;;;;;;;5.25;2.47;;;;;;;;;;5036583;28;20068;-85
2023/01/19 03:14:15;;;;;;;5.28;2.10;;;;;;;;;;5032547;28;20028;-85
2023/01/19 03:16:49;;;;;;;4.38;2.38;;;;;;;;;;5039768;28;20059;-85
2023/01/19 03:19:22;;;;;;;4.88;1.73;;;3.30;99.90;;;;;;5029550;28;20044;-85
2023/01/19 03:21:54;;;;;;;4.35;1.67;;;;;;;;;;5028834;28;20067;-85
2023/01/19 03:24:21;;;;;;;8.23;1.80;;;;;;;;;;5032858;28;20052;-85
2023/01/19 03:26:49;;;;;;;4.10;1.85;;;;;;;;;;5038172;28;20127;-85
2023/01/19 03:29:17;;;;;;;5.05;2.00;;;;;;;;;;5017610;28;20041;-85
2023/01/19 03:31:45;;;;;;;4.88;1.10;;;;;;;;;;5036426;28;20040;-85
2023/01/19 03:34:12;;;;;;;2.33;1.00;;;;;;;;;;5035753;28;20065;-85
2023/01/19 03:36:44;;;;;;;3.28;0.90;;;;;;;;;;5049033;28;20055;-85
2023/01/19 03:39:11;;;;;;;4.43;1.33;;;;;;;;;;5020112;28;20774;-85
2023/01/19 03:41:38;;;;;;;2.83;1.00;;;;;;;;;;5047844;28;20032;-85
2023/01/19 03:44:05;;;;;;;2.90;1.20;;;;;;;;;;5032268;28;20099;-85
2023/01/19 03:46:31;;;;;;;4.63;1.02;;;;;;;;;;5048686;28;20529;-85
2023/01/19 03:48:57;;;;;;;2.97;0.93;;;;;;;;;;5039688;28;20044;-85
2023/01/19 03:51:23;;;;;;;3.42;1.25;;;;;;;;;;5041861;28;20036;-85
2023/01/19 03:53:49;;;;;;;6.88;1.77;;;;;;;;;;5048503;28;20098;-85
2023/01/19 03:56:21;;;;;;;5.65;1.48;;;;;;;;;;5045026;28;20047;-85
2023/01/19 03:58:47;;;;;;;4.75;1.45;;;;;;;;;;5048974;28;20050;-85
2023/01/19 04:01:14;;;;;;;4.78;0.90;;;;;;;;;;5043249;28;20499;-85
2023/01/19 04:03:40;;;;;;;3.30;0.82;;;;;;;;;;5040059;28;20112;-85
2023/01/19 04:06:07;;;;;;;4.70;1.60;;;;;;;;;;5028502;28;20040;-85
2023/01/19 04:08:33;;;;;;;1.88;1.17;;;;;;;;;;5037845;28;20084;-86
2023/01/19 04:10:59;;;;;;;3.40;0.88;;;;;;;;;;5048680;28;20137;-85
2023/01/19 04:13:27;;;;;;;3.72;1.15;;;;;;;;;;5032039;28;20930;-84
2023/01/19 04:15:53;;;;;;;7.05;1.50;;;;;;;;;;5048705;28;20052;-85
2023/01/19 04:18:19;;;;;;;6.70;1.17;;;;;;;;;;5048455;28;20119;-85
2023/01/19 04:20:45;;;;;;;2.38;1.17;;;;;;;;;;5048813;28;20052;-85
2023/01/19 04:23:11;;;;;;;5.80;1.20;;;;;;;;;;5048082;28;20044;-85
2023/01/19 04:25:37;;;;;;;7.28;1.23;;;;;;;;;;5047730;28;20604;-85
2023/01/19 04:28:03;;;;;;;6.30;1.23;;;;;;;;;;5048362;28;20044;-85
2023/01/19 04:30:29;;;;;;;6.35;1.63;;;;;;;;;;5048026;28;20498;-85
2023/01/19 04:32:55;;;;;;;5.50;1.60;;;;;;;;;;5034894;28;20130;-85
2023/01/19 04:35:22;;;;;;;11.85;1.60;;;;;;;;;;5030750;28;20055;-86
2023/01/19 04:37:48;;;;;;;7.32;1.40;;;;;;;;;;5048086;28;20130;-85
2023/01/19 04:40:14;;;;;;;6.45;1.33;;;;;;;;;;5048105;28;20135;-86
2023/01/19 04:42:44;;;;;;;9.88;1.50;;;;;;;;;;5048120;28;20067;-85
2023/01/19 04:45:10;;;;;;;10.35;1.80;;;;;;;;;;5047717;28;20083;-85
2023/01/19 04:47:36;;;;;;;8.57;1.80;;;;;;;;;;5039622;28;20041;-85
2023/01/19 04:50:04;;;;;;;10.98;2.00;;;;;;;;;;5025284;28;20115;-84
2023/01/19 04:52:34;;;;;;;6.35;1.38;;;;;;;;;;5034321;28;20199;-85
2023/01/19 04:55:04;;;;;;;9.35;1.63;;;4.10;99.90;;;;;;5034963;28;20037;-85
2023/01/19 04:57:30;;;;;;;11.35;2.20;;;;;;;;;;5047305;28;20505;-85
2023/01/19 04:59:56;;;;;;;9.63;1.73;;;;;;;;;;5047516;28;20091;-85
2023/01/19 05:02:22;;;;;;;10.00;2.10;;;;;;;;;;5047650;28;20508;-85
2023/01/19 05:04:48;;;;;;;11.15;2.22;;;;;;;;;;5048146;28;20052;-85
2023/01/19 05:07:14;;;;;;;10.30;1.60;;;;;;;;;;5033562;28;20049;-85
2023/01/19 05:09:40;;;;;;;9.13;1.63;;;;;;;;;;5047789;28;20429;-85
2023/01/19 05:12:07;;;;;;;4.97;1.52;;;;;;;;;;5046848;28;20051;-85
2023/01/19 05:14:33;;;;;;;7.75;1.92;;;;;;;;;;5033507;28;20047;-85
2023/01/19 05:17:00;;;;;;;6.78;1.48;;;;;;;;;;5020535;28;20053;-85
2023/01/19 05:19:26;;;;;;;3.75;1.45;;;;;;;;;;5044769;28;20783;-85
2023/01/19 05:21:53;;;;;;;6.50;1.30;;;;;;;;;;5047478;28;20041;-86
2023/01/19 05:24:19;;;;;;;3.38;1.05;;;;;;;;;;5047372;28;20044;-85
2023/01/19 05:26:45;;;;;;;4.65;1.73;;;;;;;;;;5047439;28;20522;-85
2023/01/19 05:29:11;;;;;;;5.55;1.42;;;;;;;;;;5047312;28;20044;-85
2023/01/19 05:31:37;;;;;;;7.80;1.05;;;;;;;;;;5047300;28;20455;-85
2023/01/19 05:34:03;;;;;;;7.53;1.40;;;;;;;;;;5035813;28;20044;-85
2023/01/19 05:36:29;;;;;;;5.40;1.27;;;;;;;;;;5045409;28;20079;-85
2023/01/19 05:38:55;;;;;;;2.80;0.88;;;;;;;;;;5047549;28;20083;-85
2023/01/19 05:41:21;;;;;;;6.00;1.40;;;;;;;;;;5047100;28;20044;-85
2023/01/19 05:43:47;;;;;;;5.53;1.45;;;;;;;;;;5047333;28;20510;-85
2023/01/19 05:46:13;;;;;;;2.40;1.17;;;;;;;;;;5047764;28;20044;-85
2023/01/19 05:48:39;;;;;;;3.60;1.38;;;;;;;;;;5016997;28;20051;-85
2023/01/19 05:51:06;;;;;;;4.10;1.15;;;;;;;;;;5047489;28;20044;-85
2023/01/19 05:53:32;;;;;;;6.63;1.38;;;;;;;;;;5029476;28;20132;-85
2023/01/19 05:55:59;;;;;;;6.55;1.38;;;;;;;;;;5021149;28;20123;-85
2023/01/19 05:58:25;;;;;;;8.15;2.28;;;;;;;;;;5047793;28;20102;-85
2023/01/19 06:00:51;;;;;;;7.05;1.23;;;;;;;;;;5029310;28;20041;-85
2023/01/19 06:03:17;;;;;;;16.63;3.95;;;;;;;;;;5027654;28;20532;-85
2023/01/19 06:05:43;;;;;;;9.30;1.50;;;;;;;;;;5043810;28;20150;-85
2023/01/19 06:08:09;;;;;;;7.25;1.35;;;;;;;;;;5031098;28;20777;-85
2023/01/19 06:10:35;;;;;;;6.38;3.00;;;;;;;;;;5047298;28;20052;-85
2023/01/19 06:13:01;;;;;;;5.45;1.48;;;;;;;;;;5027770;28;20045;-85
2023/01/19 06:15:27;;;;;;;3.95;1.33;;;;;;;;;;5039956;28;20479;-85
2023/01/19 06:17:53;;;;;;;5.57;1.35;;;;;;;;;;5033304;28;20068;-85
2023/01/19 06:20:19;;;;;;;5.13;1.35;;;;;;;;;;5036728;28;20503;-85
2023/01/19 06:22:46;;;;;;;7.97;1.70;;;;;;;;;;5043983;28;20044;-85
2023/01/19 06:25:12;;;;;;;8.43;1.50;;;;;;;;;;5042065;28;20049;-85
2023/01/19 06:27:38;;;;;;;5.93;1.55;;;;;;;;;;5045297;28;20477;-85
2023/01/19 06:30:05;;;;;;;11.45;1.40;;;;;;;;;;5050683;28;20097;-85
2023/01/19 06:32:31;;;;;;;6.35;1.70;;;;;;;;;;5050414;28;20048;-85
2023/01/19 06:34:57;;;;;;;6.97;1.63;;;;;;;;;;5036560;28;20033;-85
2023/01/19 06:37:26;;;;;;;9.82;2.00;;;;;;;;;;5050508;28;20517;-85
2023/01/19 06:39:52;;;;;;;12.75;2.22;;;;;;;;;;5047008;28;20045;-85
2023/01/19 06:42:17;;;;;;;11.10;2.15;;;;;;;;;;5040187;28;20110;-85
2023/01/19 06:44:46;;;;;;;11.43;2.70;;;;;;;;;;5036240;28;20141;-86
2023/01/19 06:47:12;;;;;;;12.73;3.17;;;;;;;;;;5042628;28;20041;-86
2023/01/19 06:49:38;;;;;;;8.55;2.25;;;;;;;;;;5030402;28;20116;-85
2023/01/19 06:52:04;;;;;;;11.27;1.85;;;;;;;;;;5050225;28;20131;-85
2023/01/19 06:54:30;;;;;;;9.45;2.28;;;;;;;;;;5038254;28;20053;-85
2023/01/19 06:56:56;;;;;;;11.48;1.88;;;;;;;;;;5034243;28;20421;-85
2023/01/19 06:59:24;;;;;;;13.30;2.08;;;;;;;;;;5044356;28;20053;-85
2023/01/19 07:01:50;;;;;;;9.15;2.55;;;;;;;;;;5042364;28;20044;-85
2023/01/19 07:04:16;;;;;;;18.23;2.38;;;;;;;;;;5049992;28;20134;-86
2023/01/19 07:06:42;;;;;;;9.35;2.00;;;;;;;;;;5049781;28;20044;-85
2023/01/19 07:09:10;;;;;;;11.48;2.67;;;;;;;;;;5033238;28;20044;-85
2023/01/19 07:11:36;;;;;;;15.23;3.30;;;;;;;;;;5049837;28;20054;-85
2023/01/19 07:14:02;;;;;;;15.50;2.10;;;;;;;;;;5018322;28;20052;-85
2023/01/19 07:16:28;;;;;;;8.95;2.22;;;;;;;;;;5029618;28;20526;-85
2023/01/19 07:18:54;;;;;;;12.25;2.22;;;;;;;;;;5042504;28;20048;-85
2023/01/19 07:21:20;;;;;;;16.17;2.65;;;;;;;;;;5048044;28;20507;-85
2023/01/19 07:23:53;;;;;;;14.20;2.08;;;;;;;;;;5049516;28;20143;-86
2023/01/19 07:26:20;;;;;;;12.60;2.28;;;;;;;;;;5049496;28;20044;-85
2023/01/19 07:28:46;;;;;;;18.48;2.28;;;;;;;;;;5049770;28;20044;-85
2023/01/19 07:31:12;;;;;;;17.80;2.30;;;;;;;;;;5033527;28;20044;-85
2023/01/19 07:33:38;;;;;;;11.45;2.35;;;;;;;;;;5038080;28;20043;-85
2023/01/19 07:36:04;;;;;;;6.45;2.10;;;;;;;;;;5034676;28;20036;-85
2023/01/19 07:38:30;;;;;;;14.63;2.15;;;;;;;;;;5029616;28;20514;-86
2023/01/19 07:41:00;;;;;;;8.23;2.22;;;;;;;;;;5041453;28;20048;-85
2023/01/19 07:43:26;;;;;;;6.85;2.80;;;;;;;;;;5048960;28;20057;-86
2023/01/19 07:45:55;;;;;;;12.70;3.55;;;;;;;;;;5021684;28;20069;-86
2023/01/19 07:48:21;;;;;;;17.80;2.95;;;;;;;;;;5046233;28;20460;-86
2023/01/19 07:50:47;;;;;;;18.23;2.58;;;;;;;;;;5048750;28;20040;-86
2023/01/19 07:53:13;;;;;;;18.98;2.78;;;;;;;;;;5046959;28;20086;-86
2023/01/19 07:55:39;;;;;;;15.27;2.15;;;;;;;;;;5031577;28;20044;-85
2023/01/19 07:58:06;;;;;;;13.40;2.35;;;;;;;;;;5048878;28;20044;-86
2023/01/19 08:00:32;;;;;;;14.65;2.38;;;;;;;;;;5048069;28;20750;-85
2023/01/19 08:03:02;;;;;;;15.45;2.17;;;;;;;;;;5029994;28;20167;-86
2023/01/19 08:05:28;;;;;;;10.13;2.67;;;;;;;;;;5045389;28;20824;-85
2023/01/19 08:07:57;;;;;;;14.90;3.28;;;;;;;;;;5047297;28;20036;-85
2023/01/19 08:10:25;;;;;;;13.63;2.90;;;;;;;;;;5046956;28;20040;-86
2023/01/19 08:12:52;;;;;;;12.68;2.20;;;;;;;;;;5047535;28;20498;-85
2023/01/19 08:15:21;;;;;;;9.65;2.78;;;;;;;;;;5043871;28;20063;-85
2023/01/19 08:17:53;;;;;;;13.90;2.83;;;;;;;;;;5039479;28;20040;-86
2023/01/19 08:20:22;;;;;;;12.43;2.17;;;;;;;;;;5047199;28;20040;-85
2023/01/19 08:22:48;;;;;;;13.00;2.58;;;;;;;;;;5045906;28;20052;-85
2023/01/19 08:25:14;;;;;;;18.08;2.20;;;;;;;;;;5036158;28;20036;-85
2023/01/19 08:27:39;;;;;;;13.98;2.45;;;;;;;;;;5021140;28;20060;-85
2023/01/19 08:30:06;;;;;;;11.70;3.42;;;;;;;;;;5047464;28;20040;-85
2023/01/19 08:32:32;;;;;;;9.93;2.03;;;;;;;;;;5037815;28;20127;-85
2023/01/19 08:34:58;;;;;;;10.45;2.10;;;;;;;;;;5047483;28;20132;-85
2023/01/19 08:37:24;;;;;;;12.57;2.20;;;;;;;;;;5047281;28;20097;-85
2023/01/19 08:39:52;;;;;;;8.80;2.35;;;;;;;;;;5047554;28;20047;-85
2023/01/19 08:42:18;;;;;;;11.77;1.90;;;;;;;;;;5047423;28;20048;-85
2023/01/19 08:44:44;;;;;;;9.60;2.60;;;;;;;;;;5045419;28;20053;-85
2023/01/19 08:47:10;;;;;;;13.95;2.38;;;;;;;;;;5047254;28;20105;-86
2023/01/19 08:49:36;;;;;;;16.17;2.33;;;;;;;;;;5024396;28;20032;-88
2023/01/19 08:52:02;;;;;;;19.25;2.13;;;;;;;;;;5030201;28;20076;-87
2023/01/19 08:54:28;;;;;;;8.45;2.63;;;;;;;;;;5030274;28;20089;-86
2023/01/19 08:56:54;;;;;;;9.85;2.55;;;;;;;;;;5030506;28;20485;-85
2023/01/19 08:59:20;;;;;;;12.52;2.30;;;;;;;;;;5030631;28;20101;-84
2023/01/19 09:01:46;;;;;;;9.52;2.00;;;;;;;;;;5045964;28;20051;-85
2023/01/19 09:04:12;;;;;;;15.63;1.92;;;;;;;;;;5046378;28;20432;-84
2023/01/19 09:06:38;;;;;;;5.63;1.90;;;;;;;;;;5045640;28;20036;-84
2023/01/19 09:09:04;;;;;;;13.18;2.30;;;;;;;;;;5044774;28;20646;-85
2023/01/19 09:11:30;;;;;;;12.30;2.28;;;;;;;;;;5044520;28;20052;-84
2023/01/19 09:13:56;;;;;;;16.75;2.17;;;;;;;;;;5044816;28;20040;-85
2023/01/19 09:16:22;;;;;;;8.80;2.60;;;;;;;;;;5030030;28;20059;-85
2023/01/19 09:18:48;;;;;;;7.07;1.50;;;;;;;;;;5029861;28;20127;-84
2023/01/19 09:21:14;;;;;;;8.00;1.70;;;;;;;;;;5044032;28;20139;-84
2023/01/19 09:23:40;;;;;;;13.98;3.28;;;;;;;;;;5030419;28;20059;-84
2023/01/19 09:26:06;;;;;;;12.80;1.92;;;;;;;;;;5046644;28;20494;-84
2023/01/19 09:28:32;;;;;;;14.27;2.75;;;;;;;;;;5029730;28;20036;-84
2023/01/19 09:30:58;;;;;;;11.48;2.13;;;;;;;;;;5045395;28;20387;-85
2023/01/19 09:33:24;;;;;;;9.30;2.30;;;;;;;;;;5043430;28;20043;-85
2023/01/19 09:35:50;;;;;;;10.18;1.85;;;;;;;;;;5046856;28;20135;-84
2023/01/19 09:38:17;;;;;;;13.48;2.20;;;;;;;;;;5043987;28;20529;-85
2023/01/19 09:40:44;;;;;;;11.70;2.17;;;7.10;99.90;;;;;;5043645;28;20072;-86
2023/01/19 09:43:22;;;;;;;13.48;2.40;;;;;;;;;;5043174;28;20065;-85
2023/01/19 09:45:51;;;;;;;11.20;2.33;;;;;;;;;;5036191;28;20563;-85
2023/01/19 09:48:38;;;;;;;12.65;2.60;;;;;;;;;;5028629;28;20048;-85
2023/01/19 09:51:07;;;;;;;10.70;2.28;;;;;;;;;;5047110;28;20502;-85
2023/01/19 09:53:49;;;;;;;6.60;2.00;;;;;;;;;;5026135;28;20041;-85
2023/01/19 09:56:16;;;;;;;11.98;3.10;;;;;;;;;;5034545;28;20094;-86
2023/01/19 09:58:42;;;;;;;12.60;2.22;;;;;;;;;;5047311;28;20254;-84
2023/01/19 10:01:28;;;;;;;7.70;2.10;;;;;;;;;;5033793;28;20159;-87
2023/01/19 10:04:07;;;;;;;13.75;2.40;;;;;;;;;;5009059;28;20725;-85
2023/01/19 10:06:33;;;;;;;10.45;2.10;;;;;;;;;;5050195;28;20136;-85
2023/01/19 10:09:08;;;;;;;6.75;2.13;;;;;;;;;;5046172;28;20052;-85
2023/01/19 10:11:34;;;;;;;14.50;2.78;;;;;;;;;;5050251;28;20072;-86
2023/01/19 10:14:01;;;;;;;11.32;2.65;;;;;;;;;;5048336;28;20498;-85
2023/01/19 10:16:52;;;;;;;10.32;2.47;;;;;;;;;;5047153;28;20048;-86
2023/01/19 10:19:48;;;;;;;11.60;2.30;;;;;;;;;;5033493;28;20040;-86
2023/01/19 10:22:21;;;;;;;8.38;2.10;;;8.30;99.90;;;;;;5032787;28;20049;-86
2023/01/19 10:24:48;;;;;;;11.38;2.30;;;;;;;;;;5024046;28;20048;-86
2023/01/19 10:27:18;;;;;;;12.25;2.50;;;;;;;;;;5041179;28;20130;-86
2023/01/19 10:29:45;;;;;;;9.90;2.03;;;;;;;;;;5047733;28;20127;-85
2023/01/19 10:32:13;;;;;;;9.70;2.22;;;;;;;;;;5029726;28;20106;-85
2023/01/19 10:34:40;;;;;;;10.45;2.17;;;;;;;;;;5031598;28;20083;-86
2023/01/19 10:37:25;;;;;;;10.93;2.60;;;;;;;;;;5049380;28;20055;-86
2023/01/19 10:40:14;;;;;;;9.83;2.03;;;;;;;;;;5049426;28;20067;-86
2023/01/19 10:42:40;;;;;;;9.32;2.13;;;;;;;;;;5030798;28;20098;-85
2023/01/19 10:45:20;;;;;;;12.85;2.70;;;;;;;;;;5032399;28;20054;-86
2023/01/19 10:47:48;;;;;;;12.10;2.28;;;8.80;99.90;;;;;;5049232;28;20047;-85
2023/01/19 10:50:25;;;;;;;7.85;2.10;;;;;;;;;;5040202;28;20147;-84
2023/01/19 10:52:53;;;;;;;9.15;2.10;;;;;;;;;;5024153;28;20040;-85
2023/01/19 10:55:27;;;;;;;7.25;1.65;;;;;;;;;;5049350;28;20370;-84
2023/01/19 10:57:53;;;;;;;6.22;2.00;;;;;;;;;;5031241;28;20055;-87
2023/01/19 11:00:19;;;;;;;9.02;2.05;;;;;;;;;;5049133;28;20055;-86
2023/01/19 11:02:51;;;;;;;6.60;1.70;;;10.10;99.90;;;;;;5043116;28;20552;-86
2023/01/19 11:05:21;;;;;;;11.02;2.00;;;;;;;;;;5039547;28;20044;-86
2023/01/19 11:07:47;;;;;;;4.28;1.65;;;;;;;;;;5049063;28;20044;-87
2023/01/19 11:10:17;;;;;;;11.63;3.00;;;;;;;;;;5031206;28;20048;-86
2023/01/19 11:13:20;;;;;;;11.05;1.80;;;11.30;99.90;;;;;;5048685;28;20055;-86
2023/01/19 11:16:03;;;;;;;5.05;1.50;;;;;;;;;;5032808;28;20040;-87
2023/01/19 11:18:34;;;;;;;4.35;1.70;;;;;;;;;;5023324;28;20044;-87
2023/01/19 11:21:07;;;;;;;7.60;1.92;;;;;;;;;;5044835;28;20050;-87
2023/01/19 11:23:42;;;;;;;11.10;2.35;;;;;;;;;;5038622;28;20037;-87
2023/01/19 11:26:14;;;;;;;8.07;2.47;;;10.40;99.90;;;;;;5047883;28;20050;-88
2023/01/19 11:28:42;;;;;;;16.42;2.30;;;;;;;;;;5036030;28;20051;-86
2023/01/19 11:31:13;;;;;;;14.20;1.95;;;9.50;99.90;;;;;;5027687;28;20036;-86
2023/01/19 11:33:42;;;;;;;10.63;2.25;;;;;;;;;;5048403;28;20041;-86
2023/01/19 11:36:14;;;;;;;9.23;1.70;;;;;;;;;;5031356;28;20545;-86
2023/01/19 11:38:42;;;;;;;7.65;1.55;;;;;;;;;;5045020;28;20084;-86
2023/01/19 11:41:14;;;;;;;8.77;1.88;;;;;;;;;;5025468;28;20548;-86
2023/01/19 11:43:41;;;;;;;7.68;1.92;;;;;;;;;;5026093;28;20052;-86
2023/01/19 11:46:11;;;;;;;6.85;1.65;;;8.80;99.90;;;;;;5018065;28;20053;-86
2023/01/19 11:48:40;;;;;;;4.97;1.75;;;;;;;;;;5046369;28;20040;-86
2023/01/19 11:51:09;;;;;;;9.20;1.77;;;;;;;;;;5048878;28;20658;-86
2023/01/19 11:53:35;;;;;;;8.32;2.90;;;;;;;;;;5034671;28;20048;-86
2023/01/19 11:56:10;;;;;;;8.50;2.08;;;;;;;;;;5049034;28;20792;-87
2023/01/19 11:58:46;;;;;;;6.77;1.57;;;;;;;;;;5043831;28;20697;-87
2023/01/19 12:01:23;;;;;;;4.97;1.20;;;10.50;99.90;;;;;;5025290;28;20368;-84
2023/01/19 12:04:04;;;;;;;5.72;1.25;;;;;;;;;;5048566;28;20044;-85
2023/01/19 12:06:32;;;;;;;7.65;1.50;;;;;;;;;;5041096;28;20808;-85
2023/01/19 12:09:02;;;;;;;9.55;1.55;;;;;;;;;;5042295;28;20067;-85
2023/01/19 12:11:34;;;;;;;5.40;2.47;;;;;;;;;;5048014;28;20067;-85
2023/01/19 12:14:00;;;;;;;5.75;1.50;;;;;;;;;;5042781;28;20405;-85
2023/01/19 12:16:28;;;;;;;5.47;1.48;;;;;;;;;;5047949;28;20052;-85
2023/01/19 12:19:06;;;;;;;6.25;1.20;;;;;;;;;;5037586;28;20048;-85
2023/01/19 12:21:32;;;;;;;6.20;1.38;;;;;;;;;;5025761;28;20111;-85
2023/01/19 12:24:11;;;;;;;6.20;1.27;;;;;;;;;;5024404;28;20481;-85
2023/01/19 12:26:55;;;;;;;3.75;1.25;;;11.90;99.90;;;;;;5026180;28;20047;-85
2023/01/19 12:29:22;;;;;;;9.70;1.83;;;;;;;;;;5040569;28;20064;-87
2023/01/19 12:32:11;;;;;;;9.57;1.42;;;;;;;;;;5048593;28;20636;-85
2023/01/19 12:34:45;;;;;;;4.47;1.40;;;;;;;;;;5047170;28;20422;-87
2023/01/19 12:37:29;;;;;;;8.00;1.63;;;;;;;;;;5025919;28;20164;-86
2023/01/19 12:39:57;;;;;;;7.25;1.58;;;;;;;;;;5047761;28;20437;-87
2023/01/19 12:42:23;;;;;;;5.55;1.48;;;;;;;;;;5047930;28;20410;-87
2023/01/19 12:44:52;;;;;;;8.68;1.40;;;;;;;;;;5042676;28;20068;-87
2023/01/19 12:47:19;;;;;;;4.88;1.30;;;;;;;;;;5028011;28;20045;-87
2023/01/19 12:49:48;;;;;;;7.75;1.40;;;;;;;;;;5044625;28;20091;-86
2023/01/19 12:52:34;;;;;;;7.50;1.40;;;;;;;;;;5028551;28;20040;-87
2023/01/19 12:55:27;;;;;;;4.63;1.23;;;;;;;;;;5024030;28;20048;-88
2023/01/19 12:58:11;;;;;;;8.95;1.85;;;;;;;;;;5024513;28;20055;-86
2023/01/19 13:00:41;;;;;;;8.60;1.65;;;;;;;;;;5041557;28;20048;-85
2023/01/19 13:03:16;;;;;;;7.22;1.30;;;11.80;99.90;;;;;;5045001;28;20541;-85
2023/01/19 13:05:47;;;;;;;7.78;1.38;;;;;;;;;;5028964;28;20164;-88
2023/01/19 13:08:17;;;;;;;4.90;1.40;;;;;;;;;;5009138;28;20049;-87
2023/01/19 13:10:52;;;;;;;6.35;1.40;;;;;;;;;;5042606;28;20374;-87
2023/01/19 13:13:26;;;;;;;7.88;1.63;;;;;;;;;;5024593;28;20431;-88
2023/01/19 13:15:53;;;;;;;9.90;1.80;;;;;;;;;;5024332;28;20048;-88
2023/01/19 13:18:24;;;;;;;8.77;1.48;;;;;;;;;;5045096;28;20106;-88
2023/01/19 13:20:52;;;;;;;9.20;1.58;;;;;;;;;;5024450;28;20041;-85
2023/01/19 13:23:24;;;;;;;7.00;2.10;;;11.90;99.90;;;;;;5024819;28;20151;-87
2023/01/19 13:25:52;;;;;;;4.80;1.17;;;;;;;;;;5039400;28;20156;-86
2023/01/19 13:28:22;;;;;;;3.22;1.23;;;11.80;99.90;;;;;;5008221;28;20825;-85
2023/01/19 13:30:57;;;;;;;2.88;1.08;;;;;;;;;;5020943;28;20755;-85
2023/01/19 13:33:25;;;;;;;4.68;0.93;;;11.90;99.90;;;;;;5018449;28;20099;-86
2023/01/19 13:36:00;;;;;;;3.00;0.90;;;;;;;;;;5049302;28;20080;-88
2023/01/19 13:38:28;;;;;;;2.65;0.90;;;;;;;;;;5028482;28;20040;-87
2023/01/19 13:40:55;;;;;;;2.17;0.70;;;11.20;99.90;;;;;;5048914;28;20124;-86
2023/01/19 13:43:27;;;;;;;2.72;0.95;;;;;;;;;;5043454;28;20079;-86
2023/01/19 13:45:53;;;;;;;5.38;0.85;;;;;;;;;;5021323;28;20088;-89
2023/01/19 13:48:21;;;;;;;3.00;1.17;;;9.90;99.90;;;;;;5030310;28;20487;-89
2023/01/19 13:51:01;;;;;;;4.40;1.17;;;9.50;99.90;;;;;;5046465;28;20037;-86
2023/01/19 13:53:28;;;;;;;3.33;0.98;;;;;;;;;;5042931;28;20076;-87
2023/01/19 13:56:09;;;;;;;3.40;1.05;;;;;;;;;;5032147;28;20045;-88
2023/01/19 13:58:36;;;;;;;2.80;1.20;;;;;;;;;;5034045;28;20032;-90
2023/01/19 14:01:02;;;;;;;7.15;1.60;;;;;;;;;;5048335;28;20406;-87
2023/01/19 14:03:28;;;;;;;4.80;1.40;;;;;;;;;;5048411;28;20045;-87
2023/01/19 14:05:54;;;;;;;4.95;1.85;;;;;;;;;;5048165;28;20102;-88
2023/01/19 14:08:21;;;;;;;7.57;1.40;;;;;;;;;;5031917;28;20048;-85
2023/01/19 14:10:47;;;;;;;2.55;1.77;;;;;;;;;;5032927;28;20163;-88
2023/01/19 14:13:43;;;;;;;10.35;2.63;;;7.30;99.90;;;;;;5012582;28;20829;-86
2023/01/19 14:16:18;;;;;;;4.93;1.80;;;;;;;;;;5010148;28;20046;-88
2023/01/19 14:18:44;;;;;;;;;;;;;;;;;;5026033;28;20045;-86
2023/01/19 14:21:12;;;;;;;5.25;1.83;;;;;;;;;;5029495;28;20293;-87
2023/01/19 14:23:43;;;;;;;8.93;1.88;;;;;;;;;;5038938;28;20075;-87
2023/01/19 14:26:28;;;;;;;6.57;1.80;;;;;;;;;;5014130;28;20049;-87
2023/01/19 14:28:54;;;;;;;4.20;2.08;;;;;;;;;;5014648;28;20832;-88
2023/01/19 14:31:26;;;;;;;5.82;1.60;;;;;;;;;;5030897;28;20095;-87
2023/01/19 14:33:53;;;;;;;8.88;2.38;;;;;;;;;;5033599;28;20029;-88
2023/01/19 14:36:27;;;;;;;5.85;1.40;;;6.70;99.90;;;;;;5032000;28;20079;-88
2023/01/19 14:38:55;;;;;;;7.63;2.20;;;;;;;;;;5037831;28;20525;-88
2023/01/19 14:41:23;;;;;;;6.15;1.60;;;;;;;;;;5019313;28;20622;-90
2023/01/19 14:43:49;;;;;;;3.85;1.80;;;;;;;;;;5047067;28;20057;-86
2023/01/19 14:46:19;;;;;;;6.57;2.30;;;;;;;;;;5024579;28;20098;-88
2023/01/19 14:48:48;;;;;;;7.47;2.67;;;;;;;;;;5029279;28;20041;-88
2023/01/19 14:51:17;;;;;;;6.90;3.25;;;6.50;99.90;;;;;;5027736;28;20045;-87
2023/01/19 14:53:46;;;;;;;18.10;6.00;;;;;;;;;;5024669;28;20037;-86